Time;durP1;ratioP1;P1;durP2;ratioP2;P2;SDS_P1;SDS_P2;PMS_P1;PMS_P2;Temp;Humidity;BMP_temperature;BMP_pressure;BME280_temperature;BME280_humidity;BME280_pressure;Samples;Min_cycle;Max_cycle;Signal;HPM_P1;HPM_P2
2022/04/02 00:01:23;;;;;;;;;13.75;13.75;;;;;3.63;57.92;100758.44;5056003;28;45370;-52
2022/04/02 00:03:49;;;;;;;;;14.75;11.75;;;;;3.82;58.75;100802.63;5070994;28;45474;-54
2022/04/02 00:06:14;;;;;;;;;15.00;13.00;;;;;3.80;58.11;100801.94;5055495;28;45449;-54
2022/04/02 00:08:40;;;;;;;;;2.00;2.00;;;;;3.78;58.59;100795.81;5056144;28;45288;-53
2022/04/02 00:11:05;;;;;;;;;18.25;11.50;;;;;3.77;57.55;100792.25;5055955;28;45688;-52
2022/04/02 00:13:31;;;;;;;;;8.25;8.25;;;;;3.75;57.43;100813.28;5055815;28;45228;-53
2022/04/02 00:15:58;;;;;;;;;11.60;10.20;;;;;3.77;57.98;100810.41;5055849;28;45292;-52
2022/04/02 00:18:23;;;;;;;;;13.20;10.20;;;;;3.75;57.29;100798.88;5071195;28;45383;-50
2022/04/02 00:20:49;;;;;;;;;7.00;7.00;;;;;3.73;57.40;100807.19;5055691;28;45431;-55
2022/04/02 00:25:58;;;;;;;;;11.40;8.80;;;;;3.52;56.84;100775.03;5055556;28;45412;-54
2022/04/02 00:28:24;;;;;;;;;11.75;8.25;;;;;3.53;56.74;100772.16;5056087;28;45303;-52
2022/04/02 00:30:49;;;;;;;;;6.00;6.00;;;;;3.52;56.18;100772.31;5070879;28;45617;-53
2022/04/02 00:33:15;;;;;;;;;14.50;10.00;;;;;3.36;55.99;100756.88;5055533;28;45886;-52
2022/04/02 00:35:40;;;;;;;;;7.00;7.00;;;;;3.64;56.02;100792.72;5055616;28;45382;-50
2022/04/02 00:38:07;;;;;;;;;8.25;8.00;;;;;3.41;55.11;100762.63;5055761;28;45442;-53
2022/04/02 00:40:32;;;;;;;;;8.60;8.60;;;;;3.55;56.07;100772.00;5055419;28;46186;-49
2022/04/02 00:42:58;;;;;;;;;8.00;5.00;;;;;3.72;55.38;100810.91;5036037;28;45891;-52
2022/04/02 00:45:24;;;;;;;;;7.25;7.25;;;;;3.63;54.42;100792.91;5055961;28;45411;-55
2022/04/02 00:47:49;;;;;;;;;8.75;8.75;;;;;3.51;53.95;100793.19;5055414;28;45571;-54
2022/04/02 00:50:15;;;;;;;;;9.25;6.00;;;;;3.56;55.07;100805.44;5036658;28;46112;-56
2022/04/02 00:52:40;;;;;;;;;5.75;5.75;;;;;3.62;55.05;100799.31;5055536;28;45315;-50
2022/04/02 00:55:06;;;;;;;;;4.00;1.00;;;;;3.69;54.85;100791.38;5037195;28;45457;-51
2022/04/02 00:57:32;;;;;;;;;8.00;5.00;;;;;3.68;53.89;100793.25;5055396;28;45589;-51
2022/04/02 00:59:57;;;;;;;;;7.50;5.75;;;;;3.65;54.27;100786.31;5070132;28;45683;-52
2022/04/02 01:02:23;;;;;;;;;7.25;4.25;;;;;3.70;53.90;100796.66;5016686;28;45746;-53
2022/04/02 01:04:49;;;;;;;;;6.50;4.75;;;;;3.64;53.21;100784.56;5070478;28;45385;-54
2022/04/02 01:07:17;;;;;;;;;7.00;7.00;;;;;3.24;53.57;100711.03;5054833;28;45397;-52
2022/04/02 01:09:43;;;;;;;;;4.20;2.00;;;;;3.68;53.43;100787.81;5053528;28;45524;-52
2022/04/02 01:12:08;;;;;;;;;5.00;5.00;;;;;3.60;53.31;100785.09;5054855;28;45310;-49
2022/04/02 01:14:34;;;;;;;;;6.25;6.25;;;;;3.62;53.02;100793.91;5054698;28;45394;-50
2022/04/02 01:17:01;;;;;;;;;4.00;4.00;;;;;3.65;53.34;100788.16;5055058;28;45308;-51
2022/04/02 01:19:28;;;;;;;;;2.80;2.80;;;;;3.62;53.02;100781.19;5054160;28;45396;-54
2022/04/02 01:21:54;;;;;;;;;5.00;5.00;;;;;3.61;52.88;100784.94;5070374;28;45426;-55
2022/04/02 01:24:19;;;;;;;;;3.80;2.00;;;;;3.62;53.68;100799.31;5036585;28;45473;-51
2022/04/02 01:26:45;;;;;;;;;9.25;5.00;;;;;3.50;52.03;100777.06;5037208;28;45635;-50
2022/04/02 01:29:10;;;;;;;;;3.50;3.50;;;;;3.53;52.98;100790.34;5070070;28;45573;-52
2022/04/02 01:31:36;;;;;;;;;4.00;4.00;;;;;3.49;52.66;100788.94;5070027;28;45447;-53
2022/04/02 01:34:02;;;;;;;;;7.25;4.75;;;;;3.42;52.11;100788.75;5054354;28;45401;-54
2022/04/02 01:36:28;;;;;;;;;7.40;5.80;;;;;3.44;52.43;100792.16;5054627;28;45520;-54
2022/04/02 01:38:53;;;;;;;;;6.25;5.00;;;;;3.47;52.86;100812.69;5054628;28;46178;-50
2022/04/02 01:41:19;;;;;;;;;5.75;4.50;;;;;3.45;52.80;100802.00;5054060;28;45376;-53
2022/04/02 01:43:44;;;;;;;;;5.00;4.00;;;;;3.42;53.17;100796.06;5070088;28;45413;-50
2022/04/02 01:46:10;;;;;;;;;8.00;4.75;;;;;3.37;52.69;100797.38;5054504;28;45336;-51
2022/04/02 01:48:36;;;;;;;;;4.00;4.00;;;;;3.34;53.16;100797.72;5036452;28;46822;-55
2022/04/02 01:51:02;;;;;;;;;4.00;4.00;;;;;3.38;52.90;100807.22;5066705;28;45317;-50
2022/04/02 01:53:28;;;;;;;;;3.00;3.00;;;;;3.37;52.67;100793.84;5071267;28;45359;-52
2022/04/02 01:55:54;;;;;;;;;6.00;5.25;;;;;3.36;52.65;100798.41;5073463;28;45534;-52
2022/04/02 01:58:19;;;;;;;;;4.50;4.25;;;;;3.39;53.32;100810.78;5057614;28;46488;-52
2022/04/02 02:00:46;;;;;;;;;4.00;4.00;;;;;3.41;52.74;100816.06;5039721;28;45456;-50
2022/04/02 02:03:12;;;;;;;;;5.00;5.00;;;;;3.06;52.94;100776.22;5058060;28;45880;-52
2022/04/02 02:05:38;;;;;;;;;5.00;5.00;;;;;3.36;53.03;100813.84;5044867;28;45874;-50
2022/04/02 02:08:04;;;;;;;;;8.50;5.00;;;;;3.19;53.22;100793.91;5056725;28;45461;-54
2022/04/02 02:10:29;;;;;;;;;4.25;3.50;;;;;3.37;53.14;100820.97;5048686;28;45435;-53
2022/04/02 02:12:55;;;;;;;;;6.50;3.00;;;;;3.37;53.14;100829.09;5053842;28;45310;-51
2022/04/02 02:15:20;;;;;;;;;4.00;2.50;;;;;3.35;52.49;100829.25;5038930;28;45349;-53
2022/04/02 02:17:46;;;;;;;;;4.75;3.50;;;;;3.34;52.75;100835.72;5038777;28;46095;-49
2022/04/02 02:20:12;;;;;;;;;5.00;5.00;;;;;3.33;52.78;100836.72;5038826;28;45791;-53
2022/04/02 02:22:41;;;;;;;;;4.80;4.80;;;;;3.25;52.94;100818.53;5039212;28;45149;-52
2022/04/02 02:25:11;;;;;;;;;6.60;3.60;;;;;3.30;52.85;100831.59;5040226;28;45628;-52
2022/04/02 02:27:37;;;;;;;;;4.60;4.00;;;;;3.22;52.60;100824.28;5039247;28;47419;-53
2022/04/02 02:30:05;;;;;;;;;4.20;3.20;;;;;3.20;52.59;100825.47;5057531;28;45358;-50
2022/04/02 02:32:35;;;;;;;;;4.60;3.20;;;;;3.14;52.81;100801.69;5039255;28;45532;-50
2022/04/02 02:37:45;;;;;;;;;4.00;4.00;;;;;3.17;53.31;100828.47;5057409;28;45349;-48
2022/04/02 02:40:12;;;;;;;;;8.25;7.00;;;;;3.15;53.11;100839.47;5057274;28;45255;-50
2022/04/02 02:42:38;;;;;;;;;8.20;7.20;;;;;3.14;53.26;100832.38;5057229;28;45425;-49
2022/04/02 02:45:04;;;;;;;;;5.20;3.20;;;;;3.07;52.92;100829.47;5057432;28;45405;-50
2022/04/02 02:47:30;;;;;;;;;10.80;8.40;;;;;3.09;53.26;100842.84;5056892;28;45471;-51
2022/04/02 02:49:55;;;;;;;;;4.50;4.50;;;;;2.67;52.56;100788.34;5039332;28;45381;-52
2022/04/02 02:52:21;;;;;;;;;5.00;3.50;;;;;2.96;53.37;100833.28;5056876;28;45393;-49
2022/04/02 02:54:46;;;;;;;;;11.00;6.50;;;;;3.03;53.55;100843.50;5057523;28;46089;-55
2022/04/02 02:57:12;;;;;;;;;5.50;3.50;;;;;2.70;53.79;100800.75;5056742;28;45486;-50
2022/04/02 02:59:37;;;;;;;;;5.00;2.00;;;;;2.89;54.02;100823.22;5056996;28;45355;-50
2022/04/02 03:02:03;;;;;;;;;7.75;4.75;;;;;2.95;54.09;100837.00;5057018;28;45494;-52
2022/04/02 03:04:30;;;;;;;;;4.60;4.60;;;;;2.93;54.03;100852.56;5056087;28;45287;-53
2022/04/02 03:06:56;;;;;;;;;8.00;5.00;;;;;2.68;54.36;100810.91;5071820;28;46383;-50
2022/04/02 03:09:22;;;;;;;;;4.20;4.20;;;;;2.89;53.96;100845.78;5056813;28;45259;-55
2022/04/02 03:11:47;;;;;;;;;9.00;4.75;;;;;2.97;54.37;100866.66;5056727;28;45170;-51
2022/04/02 03:14:13;;;;;;;;;10.25;5.00;;;;;2.95;54.38;100861.41;5055851;28;45516;-51
2022/04/02 03:16:38;;;;;;;;;4.00;4.00;;;;;2.97;54.45;100863.94;5056500;28;45408;-52
2022/04/02 03:19:06;;;;;;;;;7.00;7.00;;;;;2.77;54.09;100831.63;5038393;28;45320;-49
2022/04/02 03:21:31;;;;;;;;;5.40;4.60;;;;;2.88;54.26;100854.91;5072049;28;45412;-53
2022/04/02 03:23:57;;;;;;;;;6.50;4.00;;;;;2.82;54.71;100853.69;5056737;28;45461;-50
2022/04/02 03:26:25;;;;;;;;;7.75;4.25;;;;;2.60;54.62;100811.69;5056385;28;45477;-49
2022/04/02 03:28:50;;;;;;;;;8.80;7.40;;;;;2.57;54.49;100825.56;5056379;28;45358;-49
2022/04/02 03:31:16;;;;;;;;;7.25;7.00;;;;;2.85;54.73;100855.25;5072222;28;45378;-53
2022/04/02 03:33:42;;;;;;;;;6.00;6.00;;;;;2.67;54.83;100847.16;5056623;28;45341;-51
2022/04/02 03:36:10;;;;;;;;;4.50;4.50;;;;;2.67;54.51;100839.00;5056006;28;46183;-54
2022/04/02 03:38:38;;;;;;;;;8.80;7.00;;;;;2.58;55.17;100813.72;5056541;28;45390;-54
2022/04/02 03:41:07;;;;;;;;;6.20;4.60;;;;;2.80;55.00;100869.28;5056556;28;45320;-52
2022/04/02 03:43:32;;;;;;;;;7.40;7.40;;;;;2.69;54.89;100853.25;5056485;28;45307;-50
2022/04/02 03:47:08;;;;;;;;;7.50;6.50;;;;;2.73;55.59;100857.38;5054755;28;46402;-51
2022/04/02 03:48:44;;;;;;;;;10.00;6.60;;;;;2.81;55.00;100865.56;5069198;28;45377;-51
2022/04/02 03:51:09;;;;;;;;;3.00;3.00;;;;;2.87;55.12;100874.06;5037990;28;45271;-52
2022/04/02 03:53:35;;;;;;;;;5.50;5.50;;;;;2.58;54.99;100835.38;5056513;28;45338;-53
2022/04/02 03:56:01;;;;;;;;;7.25;7.25;;;;;2.78;55.28;100859.59;5054695;28;45880;-52
2022/04/02 03:58:27;;;;;;;;;4.00;4.00;;;;;2.49;54.96;100829.03;5054663;28;45481;-52
2022/04/02 04:00:53;;;;;;;;;6.20;6.20;;;;;2.67;54.92;100866.94;5054941;28;45333;-54
2022/04/02 04:03:19;;;;;;;;;6.00;6.00;;;;;2.58;55.80;100855.19;5036547;28;45365;-50
2022/04/02 04:05:45;;;;;;;;;7.00;7.00;;;;;2.70;55.54;100877.50;5036311;28;47186;-50
2022/04/02 04:08:10;;;;;;;;;8.25;5.00;;;;;2.63;55.54;100862.00;5053988;28;45395;-53
2022/04/02 04:10:36;;;;;;;;;7.50;7.50;;;;;2.46;55.59;100832.06;5054585;28;45231;-53
2022/04/02 04:13:01;;;;;;;;;6.50;6.50;;;;;2.70;55.12;100868.50;5054690;28;45240;-53
2022/04/02 04:15:27;;;;;;;;;10.50;8.00;;;;;2.69;55.47;100877.66;5054006;28;45802;-51
2022/04/02 04:17:53;;;;;;;;;5.00;5.00;;;;;2.68;55.41;100879.50;5054319;28;45316;-53
2022/04/02 04:20:18;;;;;;;;;10.25;7.00;;;;;2.45;55.68;100838.47;5035901;28;45544;-54
2022/04/02 04:22:44;;;;;;;;;8.50;4.50;;;;;2.73;56.03;100886.31;5053071;28;45468;-51
2022/04/02 04:25:10;;;;;;;;;9.00;4.75;;;;;2.74;55.43;100897.00;5054002;28;46359;-53
2022/04/02 04:27:36;;;;;;;;;5.00;5.00;;;;;2.71;55.31;100892.75;5053976;28;45515;-52
2022/04/02 04:30:03;;;;;;;;;6.60;6.60;;;;;2.68;55.80;100898.47;5019982;28;45445;-51
2022/04/02 04:32:28;;;;;;;;;8.00;6.20;;;;;2.69;55.50;100899.34;5053775;28;45557;-52
2022/04/02 04:34:54;;;;;;;;;8.00;7.00;;;;;2.68;55.64;100898.47;5054118;28;45560;-52
2022/04/02 04:37:19;;;;;;;;;5.50;5.00;;;;;2.75;56.07;100900.56;5053547;28;45701;-48
2022/04/02 04:39:45;;;;;;;;;10.25;6.50;;;;;2.73;55.37;100914.28;5052939;28;45804;-51
2022/04/02 04:42:12;;;;;;;;;5.50;5.50;;;;;2.70;55.33;100922.72;5054309;28;45317;-52
2022/04/02 04:44:37;;;;;;;;;9.80;9.20;;;;;2.61;55.35;100912.81;5052303;28;46092;-50
2022/04/02 04:47:03;;;;;;;;;5.25;3.50;;;;;2.64;55.37;100918.78;5054259;28;45436;-55
2022/04/02 04:49:28;;;;;;;;;7.00;4.75;;;;;2.66;55.32;100921.34;5053825;28;45614;-53
2022/04/02 04:51:54;;;;;;;;;7.00;7.00;;;;;2.65;56.20;100920.47;5052864;28;45421;-49
2022/04/02 04:54:20;;;;;;;;;10.00;5.50;;;;;2.62;56.04;100931.63;5029794;28;45448;-54
2022/04/02 04:56:45;;;;;;;;;9.60;5.40;;;;;1.96;55.44;100818.06;5001711;28;1282741;-53
2022/04/02 04:59:12;;;;;;;;;7.75;7.00;;;;;2.55;55.76;100925.09;5070874;28;45459;-49
2022/04/02 05:01:37;;;;;;;;;9.80;6.60;;;;;2.63;55.52;100927.06;5054966;28;45416;-51
2022/04/02 05:04:05;;;;;;;;;7.00;5.00;;;;;2.61;55.82;100942.63;5054709;28;45830;-49
2022/04/02 05:06:31;;;;;;;;;14.00;7.80;;;;;2.57;55.36;100932.09;5070097;28;45436;-49
2022/04/02 05:08:57;;;;;;;;;7.25;7.25;;;;;2.57;55.68;100942.09;5054830;28;45705;-54
2022/04/02 05:11:22;;;;;;;;;8.00;5.50;;;;;2.29;56.34;100902.34;5071191;28;45594;-52
2022/04/02 05:13:48;;;;;;;;;8.00;4.75;;;;;2.54;55.56;100947.78;5070176;28;47109;-51
2022/04/02 05:16:13;;;;;;;;;9.50;7.00;;;;;2.33;55.78;100908.31;5055139;28;45223;-50
2022/04/02 05:18:40;;;;;;;;;6.00;6.00;;;;;2.29;55.75;100905.06;5036667;28;45413;-49
2022/04/02 05:21:05;;;;;;;;;9.40;7.40;;;;;2.54;56.07;100951.38;5037044;28;45395;-51
2022/04/02 05:23:31;;;;;;;;;7.75;7.25;;;;;2.54;55.78;100947.78;5036543;28;45888;-50
2022/04/02 05:25:58;;;;;;;;;5.50;5.50;;;;;2.51;56.15;100946.25;5054488;28;45407;-50
2022/04/02 05:28:23;;;;;;;;;8.00;8.00;;;;;2.62;55.54;100952.47;5055123;28;45421;-55
2022/04/02 05:30:49;;;;;;;;;4.75;4.75;;;;;2.55;55.42;100953.06;5058501;28;45392;-53
2022/04/02 05:33:14;;;;;;;;;11.75;9.25;;;;;2.56;55.46;100959.34;5039638;28;46957;-50
2022/04/02 05:35:40;;;;;;;;;8.25;8.25;;;;;2.49;55.66;100953.69;5057943;28;45295;-53
2022/04/02 05:38:05;;;;;;;;;6.00;6.00;;;;;2.54;56.12;100962.22;5039692;28;45403;-50
2022/04/02 05:40:31;;;;;;;;;7.25;6.00;;;;;2.50;55.88;100954.56;5058611;28;45326;-52
2022/04/02 05:42:57;;;;;;;;;5.75;5.00;;;;;2.56;55.37;100968.31;5057359;28;45308;-52
2022/04/02 05:45:23;;;;;;;;;2.80;2.80;;;;;2.58;55.53;100973.59;5073495;28;45254;-49
2022/04/02 05:47:49;;;;;;;;;6.50;4.50;;;;;2.62;55.09;100977.69;5057784;28;45631;-53
2022/04/02 05:50:15;;;;;;;;;6.00;6.00;;;;;1.96;55.15;100869.50;5058360;28;45879;-52
2022/04/02 05:52:41;;;;;;;;;10.00;10.00;;;;;2.45;55.56;100963.13;5039442;28;45690;-52
2022/04/02 05:55:07;;;;;;;;;7.75;5.00;;;;;2.57;55.24;100980.88;5038826;28;45442;-55
2022/04/02 05:57:33;;;;;;;;;9.00;7.00;;;;;2.49;55.78;100961.81;5045782;28;45342;-50
2022/04/02 05:59:58;;;;;;;;;3.25;1.00;;;;;2.59;55.44;100986.13;5058154;28;45492;-53
2022/04/02 06:02:24;;;;;;;;;9.00;7.00;;;;;2.68;55.41;100992.50;5057630;28;46637;-51
2022/04/02 06:04:49;;;;;;;;;7.25;7.25;;;;;2.70;55.99;100985.94;5058180;28;45386;-49
2022/04/02 06:07:15;;;;;;;;;7.75;7.75;;;;;2.65;55.39;100981.94;5057920;28;45338;-49
2022/04/02 06:09:41;;;;;;;;;9.75;5.00;;;;;2.76;55.67;100998.00;5056737;28;45638;-49
2022/04/02 06:12:06;;;;;;;;;7.00;7.00;;;;;2.70;55.58;100982.34;5056364;28;47250;-52
2022/04/02 06:14:32;;;;;;;;;8.50;7.25;;;;;2.77;55.42;101015.97;5056780;28;45185;-50
2022/04/02 06:16:57;;;;;;;;;7.75;7.75;;;;;2.73;55.47;101001.03;5057784;28;45526;-53
2022/04/02 06:19:23;;;;;;;;;11.00;8.00;;;;;2.78;55.21;101006.81;5056793;28;45520;-51
2022/04/02 06:21:48;;;;;;;;;13.25;7.75;;;;;2.79;55.69;101011.25;5055826;28;47845;-52
2022/04/02 06:24:14;;;;;;;;;11.50;10.00;;;;;2.67;55.66;100999.78;5073075;28;45750;-56
2022/04/02 06:26:39;;;;;;;;;12.50;8.25;;;;;2.79;55.38;101005.84;5056639;28;45726;-51
2022/04/02 06:29:05;;;;;;;;;8.00;7.50;;;;;2.79;56.23;101008.56;5057609;28;45412;-56
2022/04/02 06:31:30;;;;;;;;;17.50;11.00;;;;;2.88;55.38;101009.47;5057458;28;46186;-56
2022/04/02 06:33:56;;;;;;;;;9.75;5.00;;;;;2.68;55.51;100960.81;5057119;28;45444;-52
2022/04/02 06:36:21;;;;;;;;;11.25;7.75;;;;;3.05;55.34;101029.44;5057398;28;45370;-51
2022/04/02 06:38:47;;;;;;;;;11.75;9.50;;;;;3.06;54.85;101025.75;5057339;28;45654;-50
2022/04/02 06:41:12;;;;;;;;;7.25;7.25;;;;;2.79;54.81;100986.00;5057184;28;46489;-52
2022/04/02 06:43:38;;;;;;;;;8.75;5.00;;;;;2.97;55.49;101015.81;5056774;28;45411;-52
2022/04/02 06:46:04;;;;;;;;;6.50;5.00;;;;;3.05;55.29;101037.56;5056010;28;45702;-47
2022/04/02 06:48:29;;;;;;;;;7.25;7.00;;;;;2.91;55.45;100997.44;5056269;28;45363;-53
2022/04/02 06:50:55;;;;;;;;;6.50;5.00;;;;;3.14;55.46;101033.09;5057152;28;46124;-47
2022/04/02 06:53:21;;;;;;;;;4.20;4.20;;;;;3.11;55.00;101044.25;5056658;28;45520;-50
2022/04/02 06:55:46;;;;;;;;;7.25;7.00;;;;;3.05;55.40;101023.19;5055679;28;45319;-53
2022/04/02 06:58:32;;;;;;;;;7.00;5.00;;;;;3.17;55.20;101050.91;5055753;28;45425;-49
2022/04/02 07:00:58;;;;;;;;;5.40;5.40;;;;;3.08;54.86;101037.28;5055311;28;45296;-51
2022/04/02 07:03:24;;;;;;;;;6.50;5.00;;;;;3.08;54.45;101047.28;5089511;27;45326;-50
2022/04/02 07:05:50;;;;;;;;;5.00;4.50;;;;;3.07;55.03;101046.44;5056932;28;45530;-55
2022/04/02 07:08:15;;;;;;;;;8.00;5.40;;;;;3.03;54.33;101027.91;5055560;28;45441;-51
2022/04/02 07:10:41;;;;;;;;;10.00;8.00;;;;;2.95;53.68;101012.41;5056488;28;45634;-50
2022/04/02 07:13:06;;;;;;;;;6.50;6.00;;;;;3.26;53.85;101058.13;5056611;28;45461;-53
2022/04/02 07:15:32;;;;;;;;;5.50;5.50;;;;;2.96;53.99;101019.53;5089473;27;45375;-52
2022/04/02 07:17:59;;;;;;;;;5.50;5.50;;;;;3.25;54.37;101065.41;5089711;27;45463;-51
2022/04/02 07:20:26;;;;;;;;;6.60;4.40;;;;;3.10;54.23;101035.25;5071833;28;45555;-51
2022/04/02 07:22:52;;;;;;;;;5.00;5.00;;;;;3.02;53.09;101021.63;5056376;28;45390;-52
2022/04/02 07:25:19;;;;;;;;;5.00;2.00;;;;;3.25;53.05;101060.00;5056672;28;45357;-50
2022/04/02 07:27:44;;;;;;;;;3.20;3.20;;;;;3.27;53.37;101067.97;5056866;28;45549;-50
2022/04/02 07:30:11;;;;;;;;;4.50;4.50;;;;;3.25;53.13;101081.69;5054952;28;47526;-50
2022/04/02 07:32:36;;;;;;;;;5.80;5.80;;;;;3.28;53.37;101075.09;5055098;28;45412;-53
2022/04/02 07:35:02;;;;;;;;;5.00;4.00;;;;;3.22;53.39;101054.88;5056590;28;45404;-54
2022/04/02 07:37:49;;;;;;;;;4.00;4.00;;;;;3.29;52.70;101074.09;5056416;28;45629;-49
2022/04/02 07:40:17;;;;;;;;;4.80;3.20;;;;;3.30;53.32;101074.97;5056542;28;45604;-51
2022/04/02 07:43:04;;;;;;;;;6.60;5.00;;;;;3.41;53.56;101087.44;5088793;27;45383;-53
2022/04/02 07:45:37;;;;;;;;;7.20;4.40;;;;;3.26;52.56;101058.13;5056229;28;45289;-51
2022/04/02 07:48:06;;;;;;;;;5.00;5.00;;;;;3.29;52.69;101054.22;5053671;28;45529;-50
2022/04/02 07:50:32;;;;;;;;;6.20;2.00;;;;;3.48;52.77;101077.66;5028113;28;46754;-53
2022/04/02 07:52:58;;;;;;;;;4.00;4.00;;;;;3.54;52.79;101098.75;5071521;28;45412;-54
2022/04/02 07:55:23;;;;;;;;;4.00;4.00;;;;;3.56;51.68;101091.28;5055486;28;45389;-55
2022/04/02 07:57:50;;;;;;;;;7.50;6.00;;;;;3.53;51.60;101087.00;5054497;28;45548;-53
2022/04/02 08:00:19;;;;;;;;;4.40;4.40;;;;;3.56;51.63;101090.44;5071557;28;47118;-53
2022/04/02 08:02:46;;;;;;;;;5.00;5.00;;;;;3.65;51.92;101089.50;5055666;28;45439;-53
2022/04/02 08:05:16;;;;;;;;;4.00;4.00;;;;;3.75;51.40;101097.53;5088534;27;45377;-53
2022/04/02 08:07:49;;;;;;;;;0.80;0.80;;;;;3.76;51.50;101094.69;5071961;28;45629;-51
2022/04/02 08:10:16;;;;;;;;;9.00;7.00;;;;;3.78;52.16;101102.63;5071234;28;47607;-55
2022/04/02 08:12:42;;;;;;;;;9.00;6.20;;;;;3.81;51.96;101099.63;5071571;28;45208;-54
2022/04/02 08:15:12;;;;;;;;;12.25;7.00;;;;;3.49;51.55;101053.06;5055795;28;45275;-51
2022/04/02 08:17:41;;;;;;;;;7.40;6.80;;;;;3.76;52.06;101105.53;5045071;27;45498;-51
2022/04/02 08:20:07;;;;;;;;;13.80;9.20;;;;;3.61;51.95;101067.22;4999783;28;46503;-50
2022/04/02 08:22:33;;;;;;;;;8.00;7.60;;;;;3.85;51.60;101101.00;5043625;28;45789;-50
2022/04/02 08:24:59;;;;;;;;;6.75;5.00;;;;;3.64;51.15;101055.22;5056066;27;45565;-50
2022/04/02 08:27:48;;;;;;;;;7.00;7.00;;;;;3.97;50.75;101098.88;5066801;28;45377;-50
2022/04/02 08:30:17;;;;;;;;;8.20;5.00;;;;;4.04;50.35;101113.53;5042197;28;45525;-54
2022/04/02 08:33:10;;;;;;;;;2.80;2.80;;;;;4.07;49.13;101117.81;5050653;28;45390;-51
2022/04/02 08:36:24;;;;;;;;;4.80;3.20;;;;;4.11;48.69;101113.72;5029719;28;45394;-52
2022/04/02 08:39:03;;;;;;;;;4.20;2.00;;;;;4.13;48.33;101110.84;5028847;28;45448;-51
2022/04/02 08:42:02;;;;;;;;;3.60;3.60;;;;;4.08;48.26;101114.06;5050006;28;46532;-48
2022/04/02 08:45:00;;;;;;;;;4.00;4.00;;;;;3.90;47.13;101076.09;5050688;28;45446;-53
2022/04/02 08:47:29;;;;;;;;;4.00;3.20;;;;;4.12;47.30;101101.88;5044081;28;45721;-49
2022/04/02 08:50:05;;;;;;;;;5.80;4.00;;;;;3.87;46.97;101065.53;5028552;28;46001;-49
2022/04/02 08:52:55;;;;;;;;;5.00;5.00;;;;;3.93;47.18;101070.34;5049634;28;48214;-55
2022/04/02 08:55:27;;;;;;;;;4.00;4.00;;;;;4.30;47.41;101126.25;5049697;28;45484;-52
2022/04/02 08:57:52;;;;;;;;;5.40;4.80;;;;;4.22;45.93;101104.47;5050665;28;45472;-51
2022/04/02 09:00:23;;;;;;;;;6.25;2.50;;;;;4.28;46.96;101084.78;5051144;28;45454;-54
2022/04/02 09:03:06;;;;;;;;;3.60;3.60;;;;;4.60;47.01;101129.44;5051165;28;47171;-56
2022/04/02 09:06:02;;;;;;;;;8.00;5.00;;;;;4.65;46.35;101129.00;5034772;28;45409;-51
2022/04/02 09:08:33;;;;;;;;;6.20;4.40;;;;;4.75;46.68;101132.41;5069714;28;45374;-50
2022/04/02 09:11:26;;;;;;;;;4.00;4.00;;;;;4.63;47.18;101086.66;5054538;28;45794;-51
2022/04/02 09:14:03;;;;;;;;;7.60;6.20;;;;;4.85;46.60;101121.41;5068835;28;46702;-52
2022/04/02 09:16:35;;;;;;;;;6.60;4.80;;;;;4.98;47.23;101120.09;5053768;28;45571;-49
2022/04/02 09:19:19;;;;;;;;;1.60;1.60;;;;;5.15;46.55;101124.56;5053103;28;45848;-52
2022/04/02 09:22:04;;;;;;;;;6.00;5.00;;;;;5.35;46.15;101118.81;5044190;27;45436;-51
2022/04/02 09:25:24;;;;;;;;;4.00;4.00;;;;;5.38;45.69;101142.09;5053472;28;45505;-53
2022/04/02 09:27:59;;;;;;;;;4.40;4.40;;;;;5.39;45.97;101124.78;4990972;28;45559;-54
2022/04/02 09:30:37;;;;;;;;;6.00;6.00;;;;;5.37;45.70;101133.09;5051303;28;45402;-53
2022/04/02 09:33:33;;;;;;;;;4.00;4.00;;;;;5.42;44.17;101135.31;5054363;28;45852;-53
2022/04/02 09:36:17;;;;;;;;;6.00;6.00;;;;;5.57;44.40;101128.16;5053501;28;46490;-51
2022/04/02 09:39:08;;;;;;;;;3.20;3.20;;;;;5.66;42.53;101136.34;5053637;28;45370;-51
2022/04/02 09:41:58;;;;;;;;;3.80;2.00;;;;;5.60;42.94;101137.03;5051380;28;45473;-53
2022/04/02 09:44:55;;;;;;;;;4.40;4.40;;;;;5.78;43.92;101140.44;5052506;28;45576;-52
2022/04/02 09:47:24;;;;;;;;;4.40;2.00;;;;;5.83;42.60;101126.31;5051030;28;48386;-52
2022/04/02 09:50:10;;;;;;;;;4.20;4.20;;;;;6.00;43.57;101138.03;5035090;28;45472;-51
2022/04/02 09:52:37;;;;;;;;;5.40;3.60;;;;;6.14;41.93;101147.41;5035801;28;45564;-46
2022/04/02 09:55:09;;;;;;;;;4.40;3.60;;;;;6.22;40.86;101127.47;5051821;28;45867;-50
2022/04/02 09:57:53;;;;;;;;;1.80;1.80;;;;;6.18;39.45;101097.00;5051308;28;45896;-54
2022/04/02 10:00:21;;;;;;;;;3.60;3.60;;;;;6.52;39.64;101125.03;5002472;28;45851;-48
2022/04/02 10:03:01;;;;;;;;;5.80;5.00;;;;;6.55;40.33;101121.09;5016541;28;45394;-51
2022/04/02 10:05:42;;;;;;;;;6.60;6.00;;;;;6.55;41.30;101110.19;5036175;28;45511;-51
2022/04/02 10:08:20;;;;;;;;;5.80;5.20;;;;;6.69;40.94;101138.59;5052280;28;46545;-50
2022/04/02 10:10:45;;;;;;;;;5.40;5.40;;;;;6.51;38.85;101142.38;5053323;28;45402;-47
2022/04/02 10:13:11;;;;;;;;;4.25;4.25;;;;;6.23;39.03;101112.81;5035341;28;45524;-52
2022/04/02 10:15:37;;;;;;;;;2.00;2.00;;;;;6.24;39.84;101144.50;5068594;28;45531;-57
2022/04/02 10:18:03;;;;;;;;;5.75;5.75;;;;;6.21;39.65;101128.50;5080901;27;47926;-48
2022/04/02 10:20:29;;;;;;;;;5.80;5.80;;;;;6.34;39.75;101145.16;5033711;28;45484;-54
2022/04/02 10:23:22;;;;;;;;;2.00;2.00;;;;;6.42;38.00;101132.53;5041965;28;45571;-47
2022/04/02 10:26:07;;;;;;;;;3.80;3.80;;;;;6.45;37.86;101137.66;5032523;28;45545;-48
2022/04/02 10:28:34;;;;;;;;;1.00;1.00;;;;;6.55;37.91;101137.47;5048432;28;47261;-47
2022/04/02 10:31:00;;;;;;;;;6.60;4.20;;;;;6.39;37.58;101098.28;5034331;28;45761;-49
2022/04/02 10:33:27;;;;;;;;;9.20;8.40;;;;;6.71;37.44;101151.03;5068945;28;45438;-48
2022/04/02 10:35:53;;;;;;;;;1.00;1.00;;;;;6.81;37.42;101141.75;5018896;28;45557;-52
2022/04/02 10:38:27;;;;;;;;;3.80;3.80;;;;;6.77;37.67;101150.31;5053379;28;45878;-49
2022/04/02 10:40:52;;;;;;;;;4.20;4.20;;;;;6.85;38.54;101140.38;5031595;28;46418;-49
2022/04/02 10:43:29;;;;;;;;;5.50;5.50;;;;;6.58;36.31;101107.94;5051687;28;45350;-45
2022/04/02 10:45:56;;;;;;;;;5.00;5.00;;;;;6.83;37.11;101146.03;5052438;28;45952;-50
2022/04/02 10:48:27;;;;;;;;;3.00;3.00;;;;;6.81;36.12;101133.56;5053270;28;46323;-48
2022/04/02 10:50:54;;;;;;;;;4.40;2.20;;;;;6.89;35.92;101131.66;5034845;28;45469;-51
2022/04/02 10:53:19;;;;;;;;;2.20;2.20;;;;;7.12;36.00;101114.50;5068514;28;45373;-47
2022/04/02 10:55:46;;;;;;;;;2.00;2.00;;;;;7.35;35.17;101131.94;5041863;28;45489;-46
2022/04/02 10:58:13;;;;;;;;;5.60;5.60;;;;;7.28;35.51;101119.00;5052380;28;45947;-49
2022/04/02 11:00:40;;;;;;;;;3.00;3.00;;;;;7.48;35.89;101109.47;5020091;28;45598;-49
2022/04/02 11:03:08;;;;;;;;;5.00;3.40;;;;;7.58;35.26;101090.97;5034317;28;45516;-50
2022/04/02 11:05:40;;;;;;;;;5.80;4.60;;;;;7.85;35.38;101118.75;5052603;28;45451;-49
2022/04/02 11:08:15;;;;;;;;;5.00;5.00;;;;;7.97;34.19;101109.06;5016940;28;47666;-51
2022/04/02 11:10:46;;;;;;;;;1.60;1.60;;;;;8.09;34.55;101127.72;5034235;28;45453;-47
2022/04/02 11:13:12;;;;;;;;;2.40;2.00;;;;;8.00;35.13;101125.09;5068151;28;45880;-51
2022/04/02 11:15:41;;;;;;;;;3.00;2.00;;;;;8.02;35.18;101119.44;5051315;28;45639;-50
2022/04/02 11:18:15;;;;;;;;;6.40;4.20;;;;;8.08;34.04;101118.69;5051785;28;45604;-50
2022/04/02 11:20:41;;;;;;;;;2.40;2.20;;;;;8.18;33.35;101109.38;5050957;28;45423;-48
2022/04/02 11:23:15;;;;;;;;;3.00;3.00;;;;;8.30;34.09;101137.09;5040498;28;45700;-49
2022/04/02 11:25:52;;;;;;;;;1.40;1.40;;;;;8.24;32.71;101117.69;5066839;28;45716;-47
2022/04/02 11:28:22;;;;;;;;;3.00;3.00;;;;;8.22;33.15;101129.84;5052062;28;47000;-46
2022/04/02 11:30:52;;;;;;;;;3.40;3.40;;;;;8.30;31.77;101137.09;5052003;28;45513;-48
2022/04/02 11:33:24;;;;;;;;;1.80;1.80;;;;;8.42;33.41;101127.38;5032793;28;46444;-48
2022/04/02 11:35:55;;;;;;;;;3.40;3.40;;;;;8.62;32.67;101130.44;5052414;28;45717;-48
2022/04/02 11:38:21;;;;;;;;;4.20;3.00;;;;;8.57;32.58;101126.56;5034195;28;46946;-48
2022/04/02 11:41:12;;;;;;;;;2.20;2.20;;;;;8.69;32.69;101116.84;5052192;28;45485;-50
2022/04/02 11:43:42;;;;;;;;;5.80;2.80;;;;;8.79;32.51;101122.88;5032675;28;45639;-51
2022/04/02 11:46:09;;;;;;;;;2.20;2.00;;;;;8.98;31.26;101117.84;5050856;28;45465;-48